Time;durP1;ratioP1;P1;durP2;ratioP2;P2;SDS_P1;SDS_P2;PMS_P1;PMS_P2;Temp;Humidity;BMP_temperature;BMP_pressure;BME280_temperature;BME280_humidity;BME280_pressure;Samples;Min_cycle;Max_cycle;Signal;HPM_P1;HPM_P2
2022/04/09 00:02:13;;;;;;;16.63;6.28;;;5.60;99.90;;;;;;5012616;28;20362;-61
2022/04/09 00:04:39;;;;;;;13.25;7.03;;;5.50;99.90;;;;;;5013454;28;20038;-63
2022/04/09 00:07:05;;;;;;;10.55;6.25;;;5.50;99.90;;;;;;5012251;28;20536;-63
2022/04/09 00:09:30;;;;;;;15.65;7.82;;;5.40;99.90;;;;;;5013799;28;20026;-62
2022/04/09 00:11:56;;;;;;;13.43;6.68;;;5.30;99.90;;;;;;5014185;28;20022;-62
2022/04/09 00:14:22;;;;;;;15.13;7.32;;;5.30;99.90;;;;;;5013313;28;20104;-63
2022/04/09 00:16:47;;;;;;;15.85;7.88;;;5.20;99.90;;;;;;5013662;28;20025;-63
2022/04/09 00:19:13;;;;;;;14.27;7.03;;;5.20;99.90;;;;;;5012507;28;20391;-63
2022/04/09 00:21:39;;;;;;;15.23;6.88;;;5.10;99.90;;;;;;5013327;28;20084;-62
2022/04/09 00:24:05;;;;;;;12.60;7.13;;;5.10;99.90;;;;;;5013302;28;20065;-62
2022/04/09 00:26:30;;;;;;;11.95;7.05;;;5.10;99.90;;;;;;5013560;28;20028;-62
2022/04/09 00:28:56;;;;;;;15.93;7.72;;;5.10;99.90;;;;;;5011902;28;20116;-63
2022/04/09 00:31:21;;;;;;;18.73;7.70;;;5.10;99.90;;;;;;5013039;28;20025;-62
2022/04/09 00:33:47;;;;;;;13.40;6.80;;;5.10;99.90;;;;;;5013174;28;20030;-63
2022/04/09 00:36:13;;;;;;;12.63;7.60;;;5.20;99.90;;;;;;5012236;28;20105;-61
2022/04/09 00:38:38;;;;;;;14.50;7.57;;;5.20;99.90;;;;;;5013117;28;20086;-62
2022/04/09 00:41:04;;;;;;;16.65;7.82;;;5.20;99.90;;;;;;5011770;28;20025;-62
2022/04/09 00:43:30;;;;;;;16.75;7.80;;;5.30;99.90;;;;;;5011704;28;20025;-62
2022/04/09 00:45:55;;;;;;;16.00;7.53;;;5.30;99.90;;;;;;5013076;28;20101;-62
2022/04/09 00:48:22;;;;;;;16.23;7.75;;;5.30;99.90;;;;;;5011794;28;20025;-61
2022/04/09 00:50:48;;;;;;;14.40;7.53;;;5.30;99.90;;;;;;5013048;28;20105;-63
2022/04/09 00:53:20;;;;;;;16.33;6.95;;;5.40;99.90;;;;;;5013011;28;20022;-62
2022/04/09 00:58:34;;;;;;;13.93;7.68;;;5.40;99.90;;;;;;5013102;28;20101;-63
2022/04/09 01:01:02;;;;;;;17.17;7.03;;;5.30;99.90;;;;;;5013126;28;20029;-63
2022/04/09 01:03:29;;;;;;;16.17;7.13;;;5.40;99.90;;;;;;5012694;28;20052;-62
2022/04/09 01:05:55;;;;;;;15.20;7.07;;;5.40;99.90;;;;;;5013466;28;20018;-61
2022/04/09 01:08:21;;;;;;;19.08;8.07;;;5.40;99.90;;;;;;5011927;28;20034;-62
2022/04/09 01:10:50;;;;;;;16.35;7.82;;;5.40;99.90;;;;;;5013008;28;20032;-62
2022/04/09 01:13:16;;;;;;;11.20;6.43;;;5.40;99.90;;;;;;5011941;28;20036;-62
2022/04/09 01:15:42;;;;;;;11.30;5.95;;;5.50;99.90;;;;;;5012714;28;20100;-62
2022/04/09 01:18:09;;;;;;;14.95;6.63;;;5.60;99.90;;;;;;5012718;28;20024;-63
2022/04/09 01:20:35;;;;;;;11.32;6.32;;;5.70;99.90;;;;;;5012777;28;20029;-63
2022/04/09 01:23:00;;;;;;;11.13;5.85;;;5.70;99.90;;;;;;5011611;28;20022;-62
2022/04/09 01:25:26;;;;;;;15.35;5.55;;;5.70;99.90;;;;;;5012156;28;20033;-61
2022/04/09 01:27:51;;;;;;;11.75;5.40;;;5.70;99.90;;;;;;5012844;28;20096;-63
2022/04/09 01:30:17;;;;;;;9.38;4.80;;;5.70;99.90;;;;;;5016400;28;20061;-63
2022/04/09 01:32:43;;;;;;;17.40;6.97;;;5.80;99.90;;;;;;5015233;28;20058;-63
2022/04/09 01:35:09;;;;;;;12.43;6.18;;;5.60;99.90;;;;;;5015059;28;20088;-63
2022/04/09 01:37:35;;;;;;;17.30;6.63;;;5.50;99.90;;;;;;5015234;28;20045;-62
2022/04/09 01:40:01;;;;;;;14.10;5.95;;;5.40;99.90;;;;;;5015109;28;20026;-62
2022/04/09 01:42:27;;;;;;;15.45;7.03;;;5.40;99.90;;;;;;5014969;28;20018;-63
2022/04/09 01:44:53;;;;;;;12.65;6.80;;;5.30;99.90;;;;;;5016178;28;20049;-62
2022/04/09 01:47:18;;;;;;;11.48;6.55;;;5.20;99.90;;;;;;5015131;28;20026;-62
2022/04/09 01:49:44;;;;;;;11.07;5.70;;;5.00;99.90;;;;;;5015012;28;20022;-62
2022/04/09 01:52:10;;;;;;;13.10;6.22;;;5.00;99.90;;;;;;5015091;28;20037;-62
2022/04/09 01:54:35;;;;;;;13.05;6.18;;;4.90;99.90;;;;;;5015847;28;20029;-62
2022/04/09 01:57:01;;;;;;;14.55;6.57;;;4.90;99.90;;;;;;5014735;28;20033;-62
2022/04/09 01:59:27;;;;;;;13.05;6.35;;;4.90;99.90;;;;;;5015986;28;20026;-63
2022/04/09 02:01:52;;;;;;;12.77;6.35;;;4.90;99.90;;;;;;5015796;28;20018;-63
2022/04/09 02:04:18;;;;;;;11.45;5.88;;;4.90;99.90;;;;;;5015627;28;20068;-63
2022/04/09 02:06:44;;;;;;;13.55;5.97;;;4.90;99.90;;;;;;5015972;28;20014;-62
2022/04/09 02:09:13;;;;;;;12.35;5.00;;;5.00;99.90;;;;;;5015908;28;20038;-61
2022/04/09 02:11:39;;;;;;;12.48;5.22;;;5.10;99.90;;;;;;5014427;28;20026;-61
2022/04/09 02:14:10;;;;;;;11.95;5.63;;;5.20;99.90;;;;;;5015997;28;20026;-63
2022/04/09 02:16:36;;;;;;;10.05;5.32;;;5.30;99.90;;;;;;5015592;28;20105;-63
2022/04/09 02:19:02;;;;;;;10.05;5.57;;;5.30;99.90;;;;;;5014271;28;20022;-62
2022/04/09 02:21:28;;;;;;;10.38;5.35;;;5.40;99.90;;;;;;5014196;28;20106;-62
2022/04/09 02:23:54;;;;;;;12.82;4.50;;;5.40;99.90;;;;;;5014494;28;20089;-63
2022/04/09 02:26:20;;;;;;;8.20;4.57;;;5.40;99.90;;;;;;5015299;28;20080;-62
2022/04/09 02:28:49;;;;;;;9.77;4.95;;;5.40;99.90;;;;;;5015310;28;20022;-61
2022/04/09 02:31:17;;;;;;;7.45;4.03;;;5.30;99.90;;;;;;5014043;28;20076;-61
2022/04/09 02:33:43;;;;;;;7.30;3.42;;;5.30;99.90;;;;;;5014323;28;20026;-62
2022/04/09 02:36:12;;;;;;;10.00;4.15;;;5.30;99.90;;;;;;5013836;28;20041;-63
2022/04/09 02:38:38;;;;;;;8.48;3.65;;;5.20;99.90;;;;;;5015263;28;20022;-63
2022/04/09 02:41:04;;;;;;;10.52;3.65;;;5.10;99.90;;;;;;5012513;28;20116;-63
2022/04/09 02:43:30;;;;;;;7.25;3.47;;;5.00;99.90;;;;;;5015269;28;20083;-63
2022/04/09 02:45:55;;;;;;;9.43;3.67;;;5.00;99.90;;;;;;5015394;28;20108;-62
2022/04/09 02:48:21;;;;;;;8.73;3.05;;;5.10;99.90;;;;;;5015118;28;20078;-63
2022/04/09 02:50:48;;;;;;;9.77;3.70;;;5.10;99.90;;;;;;5014963;28;20029;-63
2022/04/09 02:53:14;;;;;;;6.05;3.05;;;5.20;99.90;;;;;;5013659;28;20029;-63
2022/04/09 02:55:40;;;;;;;8.05;3.03;;;5.20;99.90;;;;;;5013840;28;20026;-63
2022/04/09 02:58:06;;;;;;;7.00;3.00;;;5.20;99.90;;;;;;5014058;28;20108;-63
2022/04/09 03:00:32;;;;;;;9.27;3.78;;;5.30;99.90;;;;;;5013583;28;20089;-63
2022/04/09 03:02:57;;;;;;;11.68;4.32;;;5.40;99.90;;;;;;5013298;28;20022;-63
2022/04/09 03:05:23;;;;;;;7.80;3.90;;;5.40;99.90;;;;;;5014593;28;20091;-63
2022/04/09 03:07:49;;;;;;;7.65;4.28;;;5.40;99.90;;;;;;5013419;28;20036;-62
2022/04/09 03:10:14;;;;;;;12.18;4.72;;;5.40;99.90;;;;;;5013590;28;20121;-62
2022/04/09 03:12:47;;;;;;;11.00;5.70;;;5.50;99.90;;;;;;5014556;28;20033;-60
2022/04/09 03:15:14;;;;;;;10.85;5.78;;;5.50;99.90;;;;;;5014389;28;20021;-63
2022/04/09 03:17:42;;;;;;;10.20;4.88;;;5.50;99.90;;;;;;5012987;28;20018;-62
2022/04/09 03:20:09;;;;;;;11.13;5.40;;;5.50;99.90;;;;;;5013907;28;20112;-63
2022/04/09 03:22:35;;;;;;;10.68;5.00;;;5.50;99.90;;;;;;5012974;28;20029;-56
2022/04/09 03:25:02;;;;;;;12.68;5.20;;;5.60;99.90;;;;;;5013151;28;20404;-58
2022/04/09 03:27:29;;;;;;;10.80;5.10;;;5.60;99.90;;;;;;5014311;28;20026;-59
2022/04/09 03:29:55;;;;;;;11.63;5.30;;;5.60;99.90;;;;;;5014253;28;20022;-58
2022/04/09 03:32:21;;;;;;;12.00;5.20;;;5.60;99.90;;;;;;5012932;28;20026;-52
2022/04/09 03:34:48;;;;;;;14.85;5.20;;;5.60;99.90;;;;;;5014292;28;20468;-53
2022/04/09 03:37:13;;;;;;;11.38;5.40;;;5.70;99.90;;;;;;5014267;28;20022;-52
2022/04/09 03:39:41;;;;;;;16.70;5.05;;;5.70;99.90;;;;;;5014212;28;20022;-56
2022/04/09 03:42:07;;;;;;;16.08;5.82;;;5.60;99.90;;;;;;5012819;28;20053;-53
2022/04/09 03:44:33;;;;;;;12.27;5.18;;;5.50;99.90;;;;;;5013193;28;20100;-55
2022/04/09 03:47:00;;;;;;;17.35;5.35;;;5.50;99.90;;;;;;5012815;28;20026;-55
2022/04/09 03:49:25;;;;;;;13.35;5.35;;;5.50;99.90;;;;;;5014290;28;20037;-54
2022/04/09 03:51:51;;;;;;;12.27;5.18;;;5.50;99.90;;;;;;5013827;28;20018;-54
2022/04/09 03:54:17;;;;;;;13.10;5.07;;;5.40;99.90;;;;;;5013635;28;20022;-57
2022/04/09 03:56:43;;;;;;;17.70;5.63;;;5.40;99.90;;;;;;5013376;28;20022;-56
2022/04/09 03:59:09;;;;;;;13.18;4.65;;;5.30;99.90;;;;;;5012986;28;20022;-52
2022/04/09 04:01:36;;;;;;;16.63;5.68;;;5.20;99.90;;;;;;5013600;28;20022;-52
2022/04/09 04:04:02;;;;;;;7.25;5.03;;;5.10;99.90;;;;;;5012578;28;20033;-52
2022/04/09 04:06:28;;;;;;;11.88;4.82;;;5.00;99.90;;;;;;5013785;28;20036;-53
2022/04/09 04:08:55;;;;;;;15.10;5.05;;;5.00;99.90;;;;;;5012789;28;20026;-53
2022/04/09 04:11:22;;;;;;;12.07;4.40;;;5.00;99.90;;;;;;5012416;28;20025;-57
2022/04/09 04:13:48;;;;;;;10.85;4.55;;;5.00;99.90;;;;;;5013847;28;20033;-55
2022/04/09 04:16:15;;;;;;;11.50;4.25;;;5.00;99.90;;;;;;5013647;28;20022;-58
2022/04/09 04:18:41;;;;;;;18.10;5.65;;;5.10;99.90;;;;;;5013538;28;20022;-58
2022/04/09 04:21:08;;;;;;;12.75;4.75;;;5.10;99.90;;;;;;5013692;28;20022;-54
2022/04/09 04:23:34;;;;;;;12.20;3.63;;;5.20;99.90;;;;;;5013343;28;20022;-60
2022/04/09 04:26:00;;;;;;;8.98;3.65;;;5.10;99.90;;;;;;5012493;28;20092;-56
2022/04/09 04:28:25;;;;;;;9.25;2.90;;;5.20;99.90;;;;;;5013366;28;20030;-54
2022/04/09 04:30:51;;;;;;;12.35;4.50;;;5.20;99.90;;;;;;5013570;28;20028;-55
2022/04/09 04:33:17;;;;;;;13.52;3.33;;;5.20;99.90;;;;;;5014017;28;20052;-54
2022/04/09 04:35:43;;;;;;;16.52;4.18;;;5.20;99.90;;;;;;5013278;28;20026;-63
2022/04/09 04:38:08;;;;;;;8.82;3.95;;;5.30;99.90;;;;;;5014244;28;20034;-59
2022/04/09 04:40:34;;;;;;;14.88;4.70;;;5.30;99.90;;;;;;5012743;28;20105;-63
2022/04/09 04:43:00;;;;;;;9.52;3.85;;;5.40;99.90;;;;;;5014485;28;20022;-62
2022/04/09 04:45:26;;;;;;;8.10;3.67;;;5.40;99.90;;;;;;5012616;28;20026;-63
2022/04/09 04:47:51;;;;;;;17.42;4.63;;;5.40;99.90;;;;;;5013784;28;20033;-57
2022/04/09 04:50:18;;;;;;;16.13;5.28;;;5.40;99.90;;;;;;5013576;28;20022;-55
2022/04/09 04:52:44;;;;;;;22.83;5.97;;;5.50;99.90;;;;;;5014082;28;20022;-59
2022/04/09 04:55:11;;;;;;;15.82;4.10;;;5.50;99.90;;;;;;5013501;28;20429;-55
2022/04/09 04:57:41;;;;;;;11.18;3.63;;;5.50;99.90;;;;;;5012559;28;20037;-59
2022/04/09 05:00:08;;;;;;;10.10;3.90;;;5.50;99.90;;;;;;5012547;28;20022;-57
2022/04/09 05:02:34;;;;;;;9.57;3.78;;;5.60;99.90;;;;;;5013358;28;20092;-55
2022/04/09 05:05:03;;;;;;;10.27;4.40;;;5.60;99.90;;;;;;5016151;28;20040;-59
2022/04/09 05:07:42;;;;;;;12.45;3.88;;;5.70;99.90;;;;;;5017671;28;20076;-56
2022/04/09 05:10:10;;;;;;;16.83;4.55;;;5.80;99.90;;;;;;5016165;28;20117;-56
2022/04/09 05:12:37;;;;;;;17.92;6.35;;;6.00;99.90;;;;;;5017613;28;20030;-62
2022/04/09 05:15:03;;;;;;;10.38;5.35;;;6.10;99.90;;;;;;5017261;28;20044;-63
2022/04/09 05:17:29;;;;;;;17.25;5.32;;;6.40;99.90;;;;;;5016522;28;20022;-63
2022/04/09 05:19:55;;;;;;;11.18;4.57;;;6.70;99.90;;;;;;5017224;28;20086;-63
2022/04/09 05:22:20;;;;;;;9.48;4.65;;;6.80;99.90;;;;;;5017031;28;20024;-62
2022/04/09 05:24:46;;;;;;;10.95;4.45;;;6.90;99.90;;;;;;5017650;28;20103;-62
2022/04/09 05:27:12;;;;;;;8.90;3.55;;;6.90;99.90;;;;;;5016087;28;20028;-63
2022/04/09 05:29:37;;;;;;;9.93;4.18;;;6.80;99.90;;;;;;5014754;28;20026;-62
2022/04/09 05:32:05;;;;;;;12.80;4.82;;;6.80;99.90;;;;;;5015164;28;20026;-63
2022/04/09 05:34:31;;;;;;;10.45;3.67;;;6.90;99.90;;;;;;5012980;28;20026;-62
2022/04/09 05:36:57;;;;;;;8.07;4.18;;;7.30;99.90;;;;;;5015475;28;20032;-60
2022/04/09 05:39:22;;;;;;;12.85;3.78;;;7.70;99.90;;;;;;5015694;28;20104;-60
2022/04/09 05:41:48;;;;;;;6.38;3.25;;;8.50;99.90;;;;;;5015814;28;20029;-59
2022/04/09 05:44:17;;;;;;;12.43;3.78;;;8.90;99.90;;;;;;5014936;28;20026;-60
2022/04/09 05:46:42;;;;;;;8.23;2.75;;;9.30;99.90;;;;;;5016921;28;20065;-61
2022/04/09 05:49:08;;;;;;;8.23;3.13;;;9.80;99.90;;;;;;5017227;28;20056;-61
2022/04/09 05:51:35;;;;;;;8.05;2.90;;;10.20;99.90;;;;;;5015551;28;20476;-59
2022/04/09 05:54:01;;;;;;;12.73;3.58;;;10.70;99.90;;;;;;5015822;28;20068;-56
2022/04/09 05:56:27;;;;;;;8.45;3.15;;;11.30;99.90;;;;;;5016497;28;20069;-61
2022/04/09 05:58:52;;;;;;;7.72;2.75;;;12.00;99.90;;;;;;5015208;28;20101;-60
2022/04/09 06:01:18;;;;;;;4.72;2.47;;;12.40;99.90;;;;;;5014602;28;20113;-60
2022/04/09 06:03:44;;;;;;;6.30;2.20;;;12.90;99.90;;;;;;5014971;28;20121;-60
2022/04/09 06:06:11;;;;;;;11.85;2.80;;;13.10;99.90;;;;;;5016563;28;20508;-60
2022/04/09 06:08:37;;;;;;;8.82;2.40;;;13.40;99.90;;;;;;5015238;28;20022;-61
2022/04/09 06:11:03;;;;;;;7.03;2.60;;;12.90;99.90;;;;;;5015244;28;20076;-60
2022/04/09 06:13:29;;;;;;;6.80;3.03;;;12.50;99.90;;;;;;5016271;28;20072;-60
2022/04/09 06:15:54;;;;;;;9.90;3.47;;;12.30;99.90;;;;;;5014855;28;20022;-60
2022/04/09 06:18:21;;;;;;;7.97;3.05;;;11.70;99.90;;;;;;5015249;28;20037;-60
2022/04/09 06:20:46;;;;;;;11.25;3.70;;;11.60;99.90;;;;;;5015221;28;20077;-60
2022/04/09 06:23:12;;;;;;;17.00;4.20;;;11.20;99.90;;;;;;5016069;28;20030;-60
2022/04/09 06:25:38;;;;;;;17.27;4.07;;;10.90;99.90;;;;;;5014974;28;20022;-60
2022/04/09 06:28:04;;;;;;;10.82;3.13;;;10.60;99.90;;;;;;5015915;28;20026;-60
2022/04/09 06:30:30;;;;;;;17.40;4.30;;;10.80;99.90;;;;;;5014603;28;20030;-59
2022/04/09 06:32:55;;;;;;;20.52;5.28;;;11.00;99.90;;;;;;5014783;28;20032;-59
2022/04/09 06:35:22;;;;;;;15.35;4.78;;;10.80;99.90;;;;;;5014428;28;20026;-59
2022/04/09 06:37:48;;;;;;;12.02;3.50;;;10.50;99.90;;;;;;5014796;28;20025;-60
2022/04/09 06:40:14;;;;;;;10.25;2.75;;;10.20;99.90;;;;;;5015292;28;20164;-60
2022/04/09 06:42:40;;;;;;;11.27;2.85;;;9.90;99.90;;;;;;5015607;28;20029;-61
2022/04/09 06:45:09;;;;;;;8.80;2.97;;;9.80;99.90;;;;;;5014708;28;20022;-62
2022/04/09 06:47:37;;;;;;;6.53;1.83;;;9.70;99.90;;;;;;5015550;28;20026;-63
2022/04/09 06:50:11;;;;;;;10.43;2.90;;;9.50;99.90;;;;;;5015514;28;20030;-58
2022/04/09 06:52:37;;;;;;;8.65;2.20;;;9.50;99.90;;;;;;5014463;28;20034;-60
2022/04/09 06:55:04;;;;;;;5.43;2.35;;;9.50;99.90;;;;;;5015601;28;20029;-59
2022/04/09 06:57:30;;;;;;;13.00;4.63;;;9.60;99.90;;;;;;5015355;28;20030;-61
2022/04/09 06:59:57;;;;;;;8.35;2.67;;;9.80;99.90;;;;;;5014075;28;20049;-61
2022/04/09 07:02:23;;;;;;;7.70;2.15;;;10.80;99.90;;;;;;5013981;28;20022;-61
2022/04/09 07:04:49;;;;;;;4.47;2.25;;;12.10;99.90;;;;;;5014006;28;20037;-61
2022/04/09 07:07:23;;;;;;;5.25;2.38;;;13.30;99.90;;;;;;5015255;28;20030;-60
2022/04/09 07:09:48;;;;;;;6.28;2.95;;;14.10;99.90;;;;;;5014833;28;20037;-61
2022/04/09 07:12:15;;;;;;;10.32;3.40;;;14.30;99.90;;;;;;5014163;28;20121;-61
2022/04/09 07:14:40;;;;;;;5.22;1.90;;;15.00;99.90;;;;;;5013740;28;20025;-60
2022/04/09 07:17:06;;;;;;;5.68;1.73;;;15.80;99.90;;;;;;5014165;28;20025;-61
2022/04/09 07:19:32;;;;;;;4.88;1.55;;;16.20;99.90;;;;;;5014940;28;20049;-61
2022/04/09 07:22:00;;;;;;;7.55;2.17;;;16.20;99.90;;;;;;5013566;28;20053;-61
2022/04/09 07:24:26;;;;;;;6.55;2.17;;;15.80;99.90;;;;;;5014922;28;20022;-61
2022/04/09 07:26:52;;;;;;;7.45;2.20;;;15.10;99.90;;;;;;5012899;28;20124;-61
2022/04/09 07:29:18;;;;;;;2.75;1.40;;;14.50;99.90;;;;;;5014996;28;20109;-60
2022/04/09 07:31:45;;;;;;;5.00;1.60;;;14.00;99.90;;;;;;5013331;28;20025;-61
2022/04/09 07:34:10;;;;;;;6.97;2.17;;;13.40;99.90;;;;;;5013377;28;20033;-61
2022/04/09 07:36:38;;;;;;;8.70;2.63;;;13.00;99.90;;;;;;5013396;28;20120;-60
2022/04/09 07:39:06;;;;;;;3.75;1.90;;;12.80;99.90;;;;;;5014493;28;20106;-60
2022/04/09 07:41:31;;;;;;;4.72;1.85;;;12.60;99.90;;;;;;5013854;28;20029;-61
2022/04/09 07:43:57;;;;;;;7.85;2.78;;;13.20;99.90;;;;;;5013655;28;20018;-61
2022/04/09 07:46:23;;;;;;;5.00;1.83;;;13.70;99.90;;;;;;5014330;28;20224;-61
2022/04/09 07:48:49;;;;;;;4.78;2.10;;;14.80;99.90;;;;;;5013199;28;20034;-61
2022/04/09 07:51:15;;;;;;;9.30;2.35;;;16.10;99.90;;;;;;5013073;28;20068;-61
2022/04/09 07:53:41;;;;;;;6.43;2.50;;;16.50;99.90;;;;;;5013182;28;20092;-60
2022/04/09 07:56:06;;;;;;;8.80;3.30;;;16.70;99.90;;;;;;5014183;28;20473;-59
2022/04/09 07:58:32;;;;;;;8.77;2.15;;;16.10;99.90;;;;;;5012931;28;20033;-61
2022/04/09 08:00:57;;;;;;;6.47;2.03;;;15.70;99.90;;;;;;5014465;28;20033;-59
2022/04/09 08:03:23;;;;;;;10.85;2.75;;;15.30;99.90;;;;;;5013494;28;20033;-61
2022/04/09 08:05:49;;;;;;;9.23;2.38;;;14.60;99.90;;;;;;5013722;28;20033;-61
2022/04/09 08:08:14;;;;;;;7.90;2.03;;;14.10;99.90;;;;;;5014376;28;20018;-61
2022/04/09 08:10:41;;;;;;;10.13;2.90;;;13.80;99.90;;;;;;5013134;28;20104;-61
2022/04/09 08:13:07;;;;;;;17.85;2.50;;;13.50;99.90;;;;;;5013906;28;20034;-61
2022/04/09 08:15:33;;;;;;;9.13;1.98;;;13.20;99.90;;;;;;5013039;28;20034;-58
2022/04/09 08:17:58;;;;;;;9.55;2.60;;;13.00;99.90;;;;;;5014408;28;20033;-59
2022/04/09 08:20:24;;;;;;;7.28;2.00;;;13.00;99.90;;;;;;5014229;28;20017;-60
2022/04/09 08:22:50;;;;;;;5.93;2.03;;;13.30;99.90;;;;;;5012727;28;20057;-61
2022/04/09 08:25:17;;;;;;;9.77;2.00;;;13.60;99.90;;;;;;5013810;28;20026;-61
2022/04/09 08:27:43;;;;;;;6.85;2.10;;;14.10;99.90;;;;;;5012628;28;20054;-61
2022/04/09 08:30:10;;;;;;;6.28;2.10;;;13.90;99.90;;;;;;5012987;28;20029;-60
2022/04/09 08:32:36;;;;;;;10.55;3.17;;;13.70;99.90;;;;;;5013679;28;20033;-61
2022/04/09 08:35:03;;;;;;;10.25;2.80;;;13.60;99.90;;;;;;5012346;28;20030;-60
2022/04/09 08:37:29;;;;;;;10.93;2.30;;;13.30;99.90;;;;;;5012514;28;20049;-59
2022/04/09 08:39:55;;;;;;;7.93;1.50;;;13.10;99.90;;;;;;5013702;28;20072;-59
2022/04/09 08:42:22;;;;;;;9.85;1.80;;;12.90;99.90;;;;;;5012357;28;20026;-57
2022/04/09 08:44:48;;;;;;;8.63;2.42;;;12.60;99.90;;;;;;5012347;28;20022;-61
2022/04/09 08:47:15;;;;;;;11.50;3.15;;;12.40;99.90;;;;;;5013225;28;20022;-57
2022/04/09 08:49:46;;;;;;;9.55;1.88;;;12.20;99.90;;;;;;5013512;28;20097;-59
2022/04/09 08:52:13;;;;;;;8.50;2.13;;;12.10;99.90;;;;;;5013430;28;20068;-56
2022/04/09 08:54:40;;;;;;;7.68;1.75;;;12.00;99.90;;;;;;5012249;28;20026;-61
2022/04/09 08:57:07;;;;;;;6.95;2.33;;;11.80;99.90;;;;;;5012491;28;20021;-61
2022/04/09 08:59:33;;;;;;;11.20;2.38;;;12.30;99.90;;;;;;5013603;28;20026;-60
2022/04/09 09:01:59;;;;;;;9.48;2.15;;;13.00;99.90;;;;;;5013886;28;20049;-61
2022/04/09 09:04:25;;;;;;;13.95;3.20;;;14.40;99.90;;;;;;5013681;28;20065;-61
2022/04/09 09:06:50;;;;;;;8.27;2.00;;;15.80;99.90;;;;;;5012391;28;20029;-61
2022/04/09 09:09:27;;;;;;;10.35;1.75;;;16.20;99.90;;;;;;5012314;28;20057;-62
2022/04/09 09:11:52;;;;;;;8.73;1.90;;;15.80;99.90;;;;;;5012131;28;20076;-61
2022/04/09 09:14:32;;;;;;;12.75;3.70;;;15.30;99.90;;;;;;5012136;28;20034;-57
2022/04/09 09:16:59;;;;;;;8.98;2.25;;;14.70;99.90;;;;;;5013363;28;20022;-62
2022/04/09 09:19:45;;;;;;;7.57;2.72;;;14.90;99.90;;;;;;5012118;28;20025;-61
2022/04/09 09:22:11;;;;;;;10.00;2.40;;;16.50;99.90;;;;;;5012085;28;20022;-62
2022/04/09 09:24:38;;;;;;;6.38;1.67;;;17.30;99.90;;;;;;5013439;28;20018;-59
2022/04/09 09:27:05;;;;;;;6.70;1.98;;;17.90;99.90;;;;;;5013426;28;20022;-61
2022/04/09 09:29:32;;;;;;;5.50;1.50;;;17.90;99.70;;;;;;5012121;28;20026;-57
2022/04/09 09:32:02;;;;;;;7.70;1.55;;;17.60;97.70;;;;;;5012628;28;20100;-62
2022/04/09 09:34:28;;;;;;;8.18;1.50;;;17.90;97.90;;;;;;5012074;28;20026;-60
2022/04/09 09:36:55;;;;;;;11.90;2.10;;;17.50;95.30;;;;;;5013162;28;20476;-60
2022/04/09 09:39:22;;;;;;;7.80;2.55;;;17.50;97.00;;;;;;5013178;28;20037;-61
2022/04/09 09:41:49;;;;;;;6.65;1.20;;;16.80;96.40;;;;;;5011764;28;20018;-61
2022/04/09 09:44:16;;;;;;;2.97;0.82;;;15.80;99.90;;;;;;5013423;28;20026;-61
2022/04/09 09:46:43;;;;;;;2.97;0.70;;;14.60;99.90;;;;;;5011873;28;20110;-61
2022/04/09 09:49:09;;;;;;;4.60;1.30;;;13.80;99.90;;;;;;5012579;28;20026;-59
2022/04/09 09:51:35;;;;;;;3.65;2.08;;;14.20;99.90;;;;;;5015325;28;20033;-62
2022/04/09 09:54:08;;;;;;;8.10;1.80;;;15.90;99.90;;;;;;5016937;28;20025;-61
2022/04/09 09:56:41;;;;;;;5.30;1.08;;;17.80;99.90;;;;;;5016579;28;20037;-62
2022/04/09 09:59:07;;;;;;;6.32;1.50;;;19.40;98.80;;;;;;5016845;28;20025;-62
2022/04/09 10:01:41;;;;;;;6.70;1.52;;;20.70;95.70;;;;;;5015188;28;20033;-62
2022/04/09 10:04:08;;;;;;;5.65;1.52;;;21.60;93.00;;;;;;5015229;28;20126;-62
2022/04/09 10:06:36;;;;;;;5.00;1.20;;;21.90;91.20;;;;;;5016335;28;20030;-62
2022/04/09 10:09:06;;;;;;;2.90;1.05;;;20.50;88.00;;;;;;5016289;28;20077;-60
2022/04/09 10:11:58;;;;;;;4.18;1.13;;;19.60;89.90;;;;;;5016212;28;20021;-58
2022/04/09 10:14:28;;;;;;;3.80;0.90;;;18.70;91.20;;;;;;5015947;28;20030;-61
2022/04/09 10:16:55;;;;;;;3.05;1.02;;;17.70;92.30;;;;;;5014896;28;20029;-60
2022/04/09 10:19:22;;;;;;;3.63;1.15;;;17.50;92.30;;;;;;5015293;28;20022;-60
2022/04/09 10:21:50;;;;;;;5.78;1.20;;;17.90;91.10;;;;;;5016069;28;20036;-62
2022/04/09 10:24:23;;;;;;;4.88;0.95;;;18.20;91.90;;;;;;5014915;28;20022;-60
2022/04/09 10:26:49;;;;;;;4.85;1.20;;;18.40;90.30;;;;;;5016378;28;20060;-62
2022/04/09 10:29:15;;;;;;;8.05;3.25;;;18.30;91.10;;;;;;5015353;28;20053;-61
2022/04/09 10:31:51;;;;;;;2.20;1.13;;;18.30;90.00;;;;;;5014497;28;20030;-62
2022/04/09 10:34:17;;;;;;;5.05;2.38;;;18.30;91.70;;;;;;5014643;28;20036;-62
2022/04/09 10:36:43;;;;;;;5.45;1.08;;;17.80;90.30;;;;;;5014960;28;20049;-59
2022/04/09 10:39:40;;;;;;;6.03;1.48;;;17.30;90.30;;;;;;5014603;28;20033;-61
2022/04/09 10:42:10;;;;;;;3.92;1.40;;;17.10;90.60;;;;;;5014407;28;20096;-61
2022/04/09 10:44:48;;;;;;;9.15;1.80;;;16.80;90.30;;;;;;5015624;28;20106;-61
2022/04/09 10:47:15;;;;;;;7.43;1.60;;;16.70;91.50;;;;;;5015684;28;20101;-60
2022/04/09 10:49:42;;;;;;;6.70;1.15;;;16.40;91.60;;;;;;5014312;28;20030;-61
2022/04/09 10:52:14;;;;;;;3.55;1.45;;;16.20;92.50;;;;;;5014573;28;20022;-61
2022/04/09 10:55:20;;;;;;;4.95;1.50;;;16.20;91.50;;;;;;5038991;23;20053;-54
2022/04/09 10:57:51;;;;;;;8.90;1.73;;;15.80;92.10;;;;;;5030691;28;20030;-54
2022/04/09 11:00:31;;;;;;;9.35;1.58;;;15.70;93.50;;;;;;5014034;28;20033;-56
2022/04/09 11:03:29;;;;;;;3.92;1.30;;;15.60;94.50;;;;;;5030312;28;20175;-56
2022/04/09 11:06:32;;;;;;;6.93;1.38;;;15.40;93.10;;;;;;4994825;28;20042;-57
2022/04/09 11:08:58;;;;;;;8.68;1.40;;;15.40;92.80;;;;;;5013943;28;20456;-53
2022/04/09 11:11:27;;;;;;;8.68;1.50;;;15.40;91.20;;;;;;5015282;28;20018;-55
2022/04/09 11:13:53;;;;;;;3.53;1.08;;;15.40;92.20;;;;;;5014121;28;20026;-55
2022/04/09 11:16:20;;;;;;;5.90;1.63;;;15.60;92.80;;;;;;5013784;28;20034;-56
2022/04/09 11:18:47;;;;;;;3.78;0.50;;;15.70;93.60;;;;;;5013879;28;20026;-56
2022/04/09 11:21:13;;;;;;;1.05;0.40;;;15.30;94.80;;;;;;5014132;28;20026;-58
2022/04/09 11:23:39;;;;;;;1.85;0.40;;;14.60;95.30;;;;;;5014865;28;20029;-55
2022/04/09 11:26:04;;;;;;;2.70;0.90;;;14.00;97.40;;;;;;5013579;28;20037;-55
2022/04/09 11:28:38;;;;;;;4.40;0.73;;;13.60;98.20;;;;;;5014119;28;20026;-54
2022/04/09 11:31:05;;;;;;;5.00;0.75;;;13.10;99.90;;;;;;5014935;28;20022;-53
2022/04/09 11:33:31;;;;;;;4.35;0.55;;;12.80;99.90;;;;;;5013455;28;20030;-53
2022/04/09 11:35:58;;;;;;;2.47;0.82;;;12.40;99.90;;;;;;5014683;28;20030;-53
2022/04/09 11:38:27;;;;;;;0.88;0.52;;;12.30;99.90;;;;;;5013687;28;20058;-52
2022/04/09 11:40:54;;;;;;;1.98;0.70;;;12.10;99.90;;;;;;5013895;28;20029;-51
2022/04/09 11:43:21;;;;;;;1.98;0.95;;;12.10;99.90;;;;;;5013269;28;20033;-53
2022/04/09 11:45:48;;;;;;;3.25;0.88;;;12.20;99.90;;;;;;5014906;28;20507;-53
2022/04/09 11:48:19;;;;;;;2.65;0.75;;;12.50;99.90;;;;;;5014794;28;20038;-52
2022/04/09 11:50:46;;;;;;;6.22;0.95;;;12.50;99.90;;;;;;5014122;28;20026;-55
2022/04/09 11:53:14;;;;;;;1.58;0.80;;;12.60;99.90;;;;;;5013115;28;20042;-51
2022/04/09 11:55:42;;;;;;;4.13;0.95;;;12.90;99.90;;;;;;5013062;28;20498;-53
2022/04/09 11:58:08;;;;;;;4.60;0.90;;;13.00;99.90;;;;;;5014406;28;20022;-53
2022/04/09 12:00:41;;;;;;;6.15;1.23;;;13.00;99.90;;;;;;5013103;28;20033;-54
2022/04/09 12:03:07;;;;;;;8.23;1.50;;;13.00;99.90;;;;;;5014265;28;20018;-53
2022/04/09 12:05:46;;;;;;;5.38;1.00;;;13.20;99.90;;;;;;5014631;28;20022;-56
2022/04/09 12:08:13;;;;;;;4.53;1.02;;;13.10;99.90;;;;;;5014421;28;20064;-58
2022/04/09 12:10:58;;;;;;;2.53;1.05;;;13.10;99.90;;;;;;5012879;28;20088;-54
2022/04/09 12:13:27;;;;;;;3.58;1.05;;;13.00;99.90;;;;;;5012539;28;20093;-54
2022/04/09 12:15:54;;;;;;;3.42;0.82;;;13.10;99.90;;;;;;5014000;28;20022;-52
2022/04/09 12:18:33;;;;;;;2.65;0.90;;;13.20;99.90;;;;;;5014051;28;20057;-54
2022/04/09 12:21:15;;;;;;;2.17;0.93;;;13.30;99.90;;;;;;5013570;28;20034;-57
2022/04/09 12:23:41;;;;;;;3.63;1.08;;;13.30;99.90;;;;;;5012507;28;20452;-55
2022/04/09 12:26:24;;;;;;;1.80;0.85;;;13.20;99.90;;;;;;5012670;28;20057;-57
2022/04/09 12:29:18;;;;;;;10.45;2.20;;;13.10;99.90;;;;;;5012664;28;20076;-54
2022/04/09 12:31:51;;;;;;;5.70;1.20;;;13.10;99.90;;;;;;5012966;28;20076;-57
2022/04/09 12:34:17;;;;;;;4.60;1.30;;;13.10;99.90;;;;;;5012586;28;20084;-55
2022/04/09 12:37:04;;;;;;;4.93;1.33;;;13.00;99.90;;;;;;5012786;28;20022;-55
2022/04/09 12:39:33;;;;;;;4.30;1.08;;;13.10;99.90;;;;;;5012462;28;20484;-58
2022/04/09 12:41:59;;;;;;;6.03;1.08;;;13.10;99.90;;;;;;5012342;28;20471;-50
2022/04/09 12:44:34;;;;;;;5.85;1.45;;;13.10;99.90;;;;;;5012278;28;20022;-51
2022/04/09 12:47:00;;;;;;;8.02;1.77;;;13.20;99.90;;;;;;5012364;28;20026;-52
2022/04/09 12:49:34;;;;;;;8.02;1.50;;;13.30;99.90;;;;;;5013657;28;20052;-55
2022/04/09 12:52:00;;;;;;;4.68;1.70;;;13.30;99.90;;;;;;5012577;28;20088;-54
2022/04/09 12:54:28;;;;;;;8.32;2.15;;;13.40;99.90;;;;;;5011749;28;20034;-51